Ulan Bator, Mongolia
Current Conditions -  °F | °C
As of 8:30 PM on Tuesday 21 Oct 2014 (Local Time) from ZMUB Reporting Station
Clear Clear  
Wind Chill:   Ceiling: Unl
Heat Index:   Visibility: 5mi
Dew Point: -9°   Wind: 4mph
Humidity: 44%   Direction: NA
Pressure: 29.97"   Gusts: NA
Location:  47.92°N, 106.91°E
Report Text: ZMUB 211230Z VRB02MPS 8000NW NSC 02/M09 Q1015 NOSIG RMK QFE654.4 45 NT
Loading
Personal Weather Stations






























Interactive Weather Map
Tropical Storm Tracking
New forecast layout! Learn more

10-Day Weather Forecast

Advertisements
Track Severe Weather on mobile